This is the latest recevied weather packets stored in our database for station/object IZ2OSD. If no packets are shown the sender has not sent any weather packets the latest 10 day(s).
| Time | Temp. | Humidity | Pressure | Rain* | Wind** | Luminosity | Snow |
|---|---|---|---|---|---|---|---|
| 1778251729 | 21.67° C | 57% | 1013.7 hPa | 0 mm | - | - | - |
| 1778251126 | 21.11° C | 57% | 1014 hPa | 0 mm | - | - | - |
| 1778248733 | 21.67° C | 55% | 1014 hPa | 0 mm | - | - | - |
| 1778245697 | 21.11° C | 59% | 1014.1 hPa | 0 mm | - | - | - |
| 1778239059 | 20° C | 62% | 1014.6 hPa | 0 mm | - | - | - |
| 1778232419 | 17.78° C | 66% | 1015.2 hPa | 0 mm | - | - | - |
| 1778222162 | 18.33° C | 69% | 1014.4 hPa | 0 mm | - | - | - |
| 1778220353 | 16.67° C | 73% | 1013.9 hPa | 0 mm | - | - | - |
| 1778219769 | 15.56° C | 74% | 1014.1 hPa | 0 mm | - | - | - |
| 1778210699 | 11.67° C | 85% | 1013 hPa | 0 mm | - | - | - |
| 1778203457 | 11.67° C | 84% | 1013.2 hPa | 0 mm | - | - | - |
| 1778201646 | 11.67° C | 85% | 1012.9 hPa | 0 mm | - | - | - |
| 1778201043 | 12.22° C | 85% | 1012.8 hPa | 0 mm | - | - | - |
| 1778198025 | 12.78° C | 84% | 1013 hPa | 0 mm | - | - | - |
| 1778196214 | 12.78° C | 82% | 1013.3 hPa | 0 mm | - | - | - |
| 1778189569 | 14.44° C | 79% | 1012.6 hPa | 0 mm | - | - | - |
| 1778185947 | 16.11° C | 73% | 1012.5 hPa | 0 mm | - | - | - |
| 1778184737 | 15.56° C | 73% | 1012 hPa | 0 mm | - | - | - |
| 1778181733 | 17.22° C | 65% | 1011.5 hPa | 0 mm | - | - | - |
| 1778181109 | 17.78° C | 60% | 1011.3 hPa | 0 mm | - | - | - |
| 1778176282 | 20° C | 50% | 1010.8 hPa | 0 mm | - | - | - |
| 1778175679 | 20° C | 50% | 1010.7 hPa | 0 mm | - | - | - |
| 1778173870 | 20.56° C | 50% | 1010.7 hPa | 0 mm | - | - | - |
| 1778169639 | 20.56° C | 48% | 1010.4 hPa | 0 mm | - | - | - |
| 1778169038 | 21.11° C | 48% | 1010.5 hPa | 0 mm | - | - | - |
* Rain latest hour (hover to see other rain measurements)
** Current wind speed in m/s (hover to see current wind gust speed)